createdAt,value
2023-03-04T00:00:28.108Z,0.50
2023-03-04T00:02:55.414Z,0.70
2023-03-04T00:05:22.736Z,1.90
2023-03-04T00:07:50.051Z,0.50
2023-03-04T00:10:17.577Z,0.60
2023-03-04T00:12:44.798Z,0.95
2023-03-04T00:15:12.119Z,0.60
2023-03-04T00:17:39.377Z,0.50
2023-03-04T00:20:07.430Z,0.70
2023-03-04T00:22:34.686Z,1.00
2023-03-04T00:25:02.045Z,0.82
2023-03-04T00:27:29.524Z,0.88
2023-03-04T00:29:57.357Z,0.47
2023-03-04T00:32:24.753Z,0.40
2023-03-04T00:34:52.053Z,0.50
2023-03-04T00:37:19.421Z,0.68
2023-03-04T00:39:46.749Z,1.27
2023-03-04T00:42:13.984Z,0.60
2023-03-04T00:44:41.524Z,0.70
2023-03-04T00:47:09.020Z,0.68
2023-03-04T00:49:38.084Z,0.70
2023-03-04T00:52:05.337Z,0.93
2023-03-04T00:54:33.184Z,0.63
2023-03-04T00:57:00.461Z,0.52
2023-03-04T00:59:27.658Z,0.50
2023-03-04T01:01:54.942Z,0.60
2023-03-04T01:04:22.348Z,0.98
2023-03-04T01:06:49.608Z,0.70
2023-03-04T01:09:17.227Z,0.65
2023-03-04T01:11:44.458Z,0.90
2023-03-04T01:14:11.676Z,1.98
2023-03-04T01:16:39.065Z,0.40
2023-03-04T01:19:06.399Z,0.50
2023-03-04T01:21:33.706Z,0.60
2023-03-04T01:24:01.064Z,0.60
2023-03-04T01:26:28.280Z,0.40
2023-03-04T01:28:55.584Z,0.50
2023-03-04T01:31:22.825Z,0.40
2023-03-04T01:33:51.730Z,0.50
2023-03-04T01:36:19.136Z,0.63
2023-03-04T01:38:46.409Z,0.60
2023-03-04T01:41:16.038Z,0.40
2023-03-04T01:43:43.471Z,0.40
2023-03-04T01:46:15.305Z,0.47
2023-03-04T01:48:42.849Z,0.40
2023-03-04T01:51:16.094Z,0.40
2023-03-04T01:53:44.583Z,0.40
2023-03-04T01:56:35.421Z,0.40
2023-03-04T01:59:15.282Z,0.32
2023-03-04T02:01:49.208Z,0.30
2023-03-04T02:04:18.478Z,0.40
2023-03-04T02:06:47.587Z,0.57
2023-03-04T02:09:16.614Z,0.40
2023-03-04T02:11:45.505Z,0.30
2023-03-04T02:14:13.652Z,0.47
2023-03-04T02:16:41.074Z,0.47
2023-03-04T02:19:18.979Z,0.47
2023-03-04T02:21:46.366Z,0.88
2023-03-04T02:24:36.396Z,0.40
2023-03-04T02:27:03.874Z,0.75
2023-03-04T02:29:31.679Z,0.30
2023-03-04T02:31:59.320Z,0.40
2023-03-04T02:34:33.263Z,0.45
2023-03-04T02:37:01.872Z,0.30
2023-03-04T02:39:42.313Z,0.40
2023-03-04T02:42:11.880Z,0.57
2023-03-04T02:44:43.593Z,0.35
2023-03-04T02:47:12.485Z,0.38
2023-03-04T02:49:41.655Z,0.50
2023-03-04T02:52:13.138Z,0.75
2023-03-04T02:54:40.826Z,0.40
2023-03-04T02:57:10.951Z,0.57
2023-03-04T02:59:41.936Z,0.50
2023-03-04T03:02:12.729Z,0.40
2023-03-04T03:04:41.072Z,0.32
2023-03-04T03:07:12.295Z,0.30
2023-03-04T03:09:40.263Z,0.50
2023-03-04T03:12:07.930Z,0.30
2023-03-04T03:14:35.490Z,0.40
2023-03-04T03:17:04.690Z,0.50
2023-03-04T03:19:32.459Z,0.30
2023-03-04T03:22:03.127Z,0.35
2023-03-04T03:24:30.720Z,0.22
2023-03-04T03:26:58.265Z,0.63
2023-03-04T03:29:25.667Z,0.43
2023-03-04T03:31:53.085Z,0.98
2023-03-04T03:34:21.572Z,0.40
2023-03-04T03:36:49.766Z,1.05
2023-03-04T03:39:17.630Z,0.50
2023-03-04T03:41:45.121Z,0.40
2023-03-04T03:44:12.490Z,0.70
2023-03-04T03:46:39.799Z,0.70
2023-03-04T03:49:07.264Z,0.40
2023-03-04T03:51:34.797Z,0.30
2023-03-04T03:54:02.406Z,0.40
2023-03-04T03:56:30.015Z,0.35
2023-03-04T03:58:57.680Z,0.50
2023-03-04T04:01:25.114Z,0.40
2023-03-04T04:03:53.474Z,0.60
2023-03-04T04:06:20.945Z,0.30
2023-03-04T04:08:48.147Z,0.40
2023-03-04T04:11:15.383Z,0.45
2023-03-04T04:13:42.744Z,0.52
2023-03-04T04:16:11.375Z,0.50
2023-03-04T04:18:39.028Z,0.40
2023-03-04T04:21:06.911Z,0.50
2023-03-04T04:23:34.359Z,0.30
2023-03-04T04:26:01.839Z,0.32
2023-03-04T04:28:29.104Z,0.60
2023-03-04T04:30:56.529Z,0.60
2023-03-04T04:33:23.973Z,0.38
2023-03-04T04:35:51.406Z,0.40
2023-03-04T04:38:18.910Z,0.65
2023-03-04T04:40:46.182Z,0.50
2023-03-04T04:43:13.526Z,0.30
2023-03-04T04:45:41.490Z,0.40
2023-03-04T04:48:09.144Z,0.32
2023-03-04T04:50:36.596Z,0.40
2023-03-04T04:53:04.081Z,0.38
2023-03-04T04:55:31.503Z,0.25
2023-03-04T04:57:58.793Z,0.75
2023-03-04T05:00:26.334Z,0.40
2023-03-04T05:02:53.906Z,0.52
2023-03-04T05:05:21.254Z,0.40
2023-03-04T05:07:48.551Z,0.50
2023-03-04T05:10:15.824Z,0.32
2023-03-04T05:12:44.948Z,0.55
2023-03-04T05:15:12.481Z,0.63
2023-03-04T05:17:39.753Z,0.60
2023-03-04T05:20:07.552Z,0.90
2023-03-04T05:22:35.132Z,0.80
2023-03-04T05:25:02.762Z,1.27
2023-03-04T05:27:30.574Z,1.35
2023-03-04T05:30:00.820Z,0.80
2023-03-04T05:32:28.665Z,1.40
2023-03-04T05:34:56.076Z,0.70
2023-03-04T05:37:23.466Z,0.60
2023-03-04T05:39:50.779Z,0.73
2023-03-04T05:42:18.005Z,0.60
2023-03-04T05:44:45.305Z,0.57
2023-03-04T05:47:12.569Z,0.80
2023-03-04T05:49:41.184Z,1.05
2023-03-04T05:52:08.556Z,0.80
2023-03-04T05:54:35.973Z,0.65
2023-03-04T05:57:03.374Z,1.20
2023-03-04T05:59:30.662Z,0.80
2023-03-04T06:01:58.022Z,0.60
2023-03-04T06:04:25.276Z,0.70
2023-03-04T06:06:52.601Z,1.15
2023-03-04T06:09:21.311Z,0.98
2023-03-04T06:11:48.722Z,0.65
2023-03-04T06:14:16.021Z,0.82
2023-03-04T06:16:43.365Z,0.88
2023-03-04T06:19:10.757Z,0.90
2023-03-04T06:21:38.088Z,0.80
2023-03-04T06:24:05.734Z,0.93
2023-03-04T06:26:33.122Z,0.98
2023-03-04T06:29:00.489Z,1.25
2023-03-04T06:31:27.846Z,0.88
2023-03-04T06:33:55.366Z,0.70
2023-03-04T06:36:22.824Z,0.73
2023-03-04T06:38:51.114Z,1.00
2023-03-04T06:41:18.389Z,0.82
2023-03-04T06:43:45.744Z,0.70
2023-03-04T06:46:13.044Z,1.20
2023-03-04T06:48:40.558Z,0.80
2023-03-04T06:51:10.047Z,0.60
2023-03-04T06:53:38.216Z,0.55
2023-03-04T06:56:06.753Z,0.70
2023-03-04T06:58:34.327Z,0.95
2023-03-04T07:01:18.278Z,0.93
2023-03-04T07:03:46.003Z,1.23
2023-03-04T07:06:14.976Z,0.52
2023-03-04T07:08:43.215Z,0.68
2023-03-04T07:11:10.561Z,1.20
2023-03-04T07:13:38.562Z,0.50
2023-03-04T07:16:07.986Z,0.52
2023-03-04T07:18:36.321Z,0.82
2023-03-04T07:21:04.464Z,0.77
2023-03-04T07:23:31.816Z,1.48
2023-03-04T07:25:59.773Z,0.35
2023-03-04T07:28:27.281Z,0.60
2023-03-04T07:30:54.707Z,0.45
2023-03-04T07:33:22.191Z,0.40
2023-03-04T07:35:49.575Z,0.70
2023-03-04T07:38:16.881Z,0.60
2023-03-04T07:40:44.127Z,1.00
2023-03-04T07:43:12.650Z,0.80
2023-03-04T07:45:39.931Z,1.33
2023-03-04T07:48:07.301Z,0.82
2023-03-04T07:50:34.719Z,1.10
2023-03-04T07:53:02.086Z,1.08
2023-03-04T07:55:30.767Z,0.70
2023-03-04T07:57:58.227Z,1.20
2023-03-04T08:00:25.670Z,1.10
2023-03-04T08:02:52.923Z,1.33
2023-03-04T08:05:20.383Z,0.95
2023-03-04T08:07:47.739Z,1.85
2023-03-04T08:10:15.056Z,0.88
2023-03-04T08:12:42.335Z,1.10
2023-03-04T08:15:09.962Z,0.93
2023-03-04T08:17:37.989Z,1.58
2023-03-04T08:20:05.764Z,1.13
2023-03-04T08:22:33.184Z,1.45
2023-03-04T08:25:00.664Z,0.80
2023-03-04T08:27:27.996Z,0.80
2023-03-04T08:29:55.379Z,0.93
2023-03-04T08:32:22.893Z,0.80
2023-03-04T08:34:50.417Z,0.90
2023-03-04T08:37:17.809Z,1.27
2023-03-04T08:39:45.082Z,1.40
2023-03-04T08:42:12.372Z,0.82
2023-03-04T08:44:39.760Z,1.10
2023-03-04T08:47:09.368Z,1.45
2023-03-04T08:49:36.768Z,1.15
2023-03-04T08:52:04.623Z,0.95
2023-03-04T08:54:31.958Z,1.00
2023-03-04T08:56:59.197Z,0.75
2023-03-04T08:59:26.513Z,0.80
2023-03-04T09:01:53.849Z,0.90
2023-03-04T09:04:21.704Z,0.80
2023-03-04T09:06:48.997Z,1.05
2023-03-04T09:09:16.236Z,1.42
2023-03-04T09:11:43.469Z,0.50
2023-03-04T09:14:10.689Z,2.50
2023-03-04T09:16:38.085Z,0.63
2023-03-04T09:19:05.667Z,1.60
2023-03-04T09:21:33.190Z,1.02
2023-03-04T09:24:00.392Z,1.05
2023-03-04T09:26:30.046Z,0.57
2023-03-04T09:29:00.233Z,0.55
2023-03-04T09:31:29.260Z,0.50
2023-03-04T09:33:58.001Z,0.52
2023-03-04T09:36:25.429Z,1.10
2023-03-04T09:38:52.712Z,0.80
2023-03-04T09:41:30.484Z,1.88
2023-03-04T09:43:58.628Z,1.80
2023-03-04T09:46:35.656Z,2.10
2023-03-04T09:49:05.298Z,1.35
2023-03-04T09:51:59.151Z,0.60
2023-03-04T09:54:47.812Z,0.73
2023-03-04T09:57:36.604Z,3.42
2023-03-04T10:00:23.576Z,1.33
2023-03-04T10:03:10.140Z,1.83
2023-03-04T10:05:44.020Z,1.20
2023-03-04T10:08:37.378Z,1.00
2023-03-04T10:11:15.301Z,1.63
2023-03-04T10:14:14.943Z,3.08
2023-03-04T10:16:59.467Z,1.75
2023-03-04T10:19:54.725Z,2.08
2023-03-04T10:22:44.926Z,2.45
2023-03-04T10:25:21.353Z,2.45
2023-03-04T10:27:56.581Z,3.72
2023-03-04T10:31:01.568Z,4.65
2023-03-04T10:33:37.100Z,2.83
2023-03-04T10:36:23.501Z,2.42
2023-03-04T10:38:55.252Z,1.70
2023-03-04T10:41:26.243Z,2.20
2023-03-04T10:44:17.119Z,1.70
2023-03-04T10:46:46.921Z,2.13
2023-03-04T10:49:16.921Z,2.00
2023-03-04T10:51:46.221Z,1.80
2023-03-04T10:54:29.552Z,2.75
2023-03-04T10:57:04.435Z,1.40
2023-03-04T10:59:42.586Z,2.75
2023-03-04T11:02:25.331Z,1.80
2023-03-04T11:04:54.058Z,1.58
2023-03-04T11:07:26.315Z,2.10
2023-03-04T11:09:54.901Z,2.08
2023-03-04T11:12:34.579Z,2.00
2023-03-04T11:15:02.729Z,2.38
2023-03-04T11:17:44.161Z,2.40
2023-03-04T11:20:29.395Z,1.40
2023-03-04T11:23:02.998Z,2.78
2023-03-04T11:25:35.597Z,1.17
2023-03-04T11:28:18.114Z,1.65
2023-03-04T11:30:54.255Z,1.42
2023-03-04T11:33:28.242Z,1.25
2023-03-04T11:36:36.061Z,1.10
2023-03-04T11:39:14.035Z,1.35
2023-03-04T11:41:47.208Z,1.20
2023-03-04T11:44:14.697Z,1.02
2023-03-04T11:46:52.582Z,1.05
2023-03-04T11:49:42.506Z,0.80
2023-03-04T11:52:18.696Z,0.95
2023-03-04T11:55:00.855Z,2.38
2023-03-04T11:57:38.157Z,1.88
2023-03-04T12:00:33.268Z,1.17
2023-03-04T12:03:13.155Z,1.15
2023-03-04T12:06:19.344Z,0.90
2023-03-04T12:09:05.231Z,1.10
2023-03-04T12:11:40.342Z,2.67
2023-03-04T12:14:23.167Z,1.85
2023-03-04T12:17:27.273Z,1.90
2023-03-04T12:20:19.061Z,1.40
2023-03-04T12:22:51.544Z,1.65
2023-03-04T12:25:33.729Z,1.33
2023-03-04T12:28:03.729Z,1.90
2023-03-04T12:30:51.198Z,1.35
2023-03-04T12:33:18.475Z,1.23
2023-03-04T12:36:06.532Z,1.95
2023-03-04T12:39:12.149Z,1.20
2023-03-04T12:44:19.468Z,1.38
2023-03-04T12:47:17.923Z,1.23
2023-03-04T12:50:25.492Z,1.00
2023-03-04T12:53:14.225Z,1.02
2023-03-04T12:55:45.475Z,1.20
2023-03-04T12:58:24.927Z,1.73
2023-03-04T13:01:16.107Z,1.42
2023-03-04T13:03:59.615Z,1.65
2023-03-04T13:06:48.657Z,1.67
2023-03-04T13:09:29.100Z,1.27
2023-03-04T13:12:17.734Z,1.30
2023-03-04T13:15:14.315Z,1.77
2023-03-04T13:17:47.266Z,1.38
2023-03-04T13:20:35.697Z,1.27
2023-03-04T13:23:07.094Z,1.20
2023-03-04T13:25:45.275Z,1.02
2023-03-04T13:28:18.625Z,1.05
2023-03-04T13:30:52.030Z,0.80
2023-03-04T13:33:21.972Z,1.27
2023-03-04T13:36:06.309Z,1.60
2023-03-04T13:38:37.297Z,1.10
2023-03-04T13:41:20.950Z,0.80
2023-03-04T13:44:28.389Z,0.80
2023-03-04T13:46:55.795Z,2.80
2023-03-04T13:49:24.790Z,2.20
2023-03-04T13:51:52.340Z,1.02
2023-03-04T13:54:19.857Z,1.00
2023-03-04T13:57:18.134Z,1.80
2023-03-04T13:59:47.795Z,1.33
2023-03-04T14:02:22.719Z,1.27
2023-03-04T14:05:01.813Z,1.23
2023-03-04T14:07:30.266Z,1.70
2023-03-04T14:10:01.937Z,2.20
2023-03-04T14:12:32.205Z,2.83
2023-03-04T14:15:14.414Z,1.95
2023-03-04T14:17:47.360Z,1.83
2023-03-04T14:20:48.434Z,2.28
2023-03-04T14:23:35.526Z,3.33
2023-03-04T14:26:11.028Z,5.32
2023-03-04T14:28:51.965Z,3.35
2023-03-04T14:31:21.682Z,2.60
2023-03-04T14:33:52.413Z,1.30
2023-03-04T14:36:23.521Z,1.17
2023-03-04T14:38:56.443Z,0.82
2023-03-04T14:41:28.470Z,0.70
2023-03-04T14:44:02.258Z,0.80
2023-03-04T14:46:36.728Z,1.77
2023-03-04T14:49:04.638Z,1.65
2023-03-04T14:51:46.157Z,1.75
2023-03-04T14:54:38.769Z,2.92
2023-03-04T14:57:24.095Z,1.40
2023-03-04T14:59:52.326Z,1.75
2023-03-04T15:02:31.707Z,2.15
2023-03-04T15:05:03.110Z,2.22
2023-03-04T15:07:37.060Z,2.17
2023-03-04T15:10:08.287Z,3.75
2023-03-04T15:12:57.454Z,3.58
2023-03-04T15:15:34.719Z,2.00
2023-03-04T15:18:23.419Z,2.50
2023-03-04T15:21:18.392Z,3.22
2023-03-04T15:23:46.135Z,3.03
2023-03-04T15:26:14.596Z,2.78
2023-03-04T15:28:43.080Z,3.40
2023-03-04T15:31:19.266Z,5.47
2023-03-04T15:33:47.771Z,3.55
2023-03-04T15:36:20.867Z,2.40
2023-03-04T15:38:51.983Z,1.90
2023-03-04T15:41:26.036Z,1.30
2023-03-04T15:43:54.881Z,1.50
2023-03-04T15:46:22.668Z,1.55
2023-03-04T15:48:51.865Z,1.33
2023-03-04T15:51:22.468Z,1.30
2023-03-04T15:53:52.573Z,2.03
2023-03-04T15:56:24.840Z,2.30
2023-03-04T15:59:02.601Z,2.88
2023-03-04T16:01:30.725Z,2.63
2023-03-04T16:03:58.588Z,2.88
2023-03-04T16:06:30.666Z,2.35
2023-03-04T16:08:59.333Z,1.70
2023-03-04T16:11:29.848Z,2.08
2023-03-04T16:13:58.220Z,1.73
2023-03-04T16:16:26.425Z,2.00
2023-03-04T16:18:55.350Z,2.80
2023-03-04T16:21:23.446Z,2.33
2023-03-04T16:23:54.839Z,2.03
2023-03-04T16:26:25.727Z,1.50
2023-03-04T16:28:54.097Z,2.03
2023-03-04T16:31:23.758Z,1.90
2023-03-04T16:33:53.553Z,1.98
2023-03-04T16:36:30.621Z,2.03
2023-03-04T16:39:02.641Z,1.65
2023-03-04T16:41:33.328Z,2.03
2023-03-04T16:44:01.448Z,1.50
2023-03-04T16:46:30.548Z,2.35
2023-03-04T16:48:59.556Z,2.55
2023-03-04T16:51:28.911Z,2.22
2023-03-04T16:54:00.378Z,3.20
2023-03-04T16:56:29.099Z,2.25
2023-03-04T16:58:57.048Z,2.38
2023-03-04T17:01:29.224Z,3.05
2023-03-04T17:03:56.892Z,3.33
2023-03-04T17:06:24.847Z,2.90
2023-03-04T17:08:52.123Z,7.40
2023-03-04T17:11:22.047Z,4.65
2023-03-04T17:13:50.171Z,4.40
2023-03-04T17:16:18.009Z,3.40
2023-03-04T17:18:46.210Z,2.67
2023-03-04T17:21:20.146Z,2.72
2023-03-04T17:23:47.378Z,2.47
2023-03-04T17:26:15.717Z,3.25
2023-03-04T17:28:43.452Z,2.85
2023-03-04T17:31:12.418Z,3.58
2023-03-04T17:33:40.102Z,3.20
2023-03-04T17:36:09.986Z,3.92
2023-03-04T17:38:38.997Z,3.67
2023-03-04T17:41:08.600Z,4.18
2023-03-04T17:43:36.150Z,3.55
2023-03-04T17:46:06.202Z,2.88
2023-03-04T17:48:33.779Z,1.73
2023-03-04T17:51:01.457Z,1.17
2023-03-04T17:53:28.850Z,1.73
2023-03-04T17:56:00.308Z,1.40
2023-03-04T17:58:29.302Z,1.00
2023-03-04T18:01:14.426Z,0.70
2023-03-04T18:03:41.610Z,1.35
2023-03-04T18:06:08.860Z,1.08
2023-03-04T18:08:36.106Z,0.98
2023-03-04T18:11:03.470Z,3.05
2023-03-04T18:13:30.980Z,1.55
2023-03-04T18:15:58.296Z,2.00
2023-03-04T18:18:25.797Z,3.20
2023-03-04T18:21:00.397Z,3.63
2023-03-04T18:25:55.631Z,3.47
2023-03-04T18:28:23.670Z,3.58
2023-03-04T18:30:52.650Z,4.10
2023-03-04T18:33:21.059Z,3.72
2023-03-04T18:35:48.417Z,8.77
2023-03-04T18:38:16.367Z,5.90
2023-03-04T18:40:44.358Z,4.53
2023-03-04T18:43:11.865Z,3.42
2023-03-04T18:45:39.124Z,4.80
2023-03-04T18:48:06.616Z,3.35
2023-03-04T18:50:33.971Z,4.07
2023-03-04T18:53:01.206Z,3.42
2023-03-04T18:55:28.550Z,2.97
2023-03-04T18:57:58.958Z,2.67
2023-03-04T19:00:26.421Z,2.95
2023-03-04T19:03:14.967Z,2.60
2023-03-04T19:05:43.021Z,3.22
2023-03-04T19:08:10.341Z,6.32
2023-03-04T19:10:37.634Z,4.55
2023-03-04T19:13:05.490Z,3.40
2023-03-04T19:15:32.776Z,2.95
2023-03-04T19:18:01.417Z,2.88
2023-03-04T19:20:28.609Z,2.33
2023-03-04T19:22:55.796Z,2.67
2023-03-04T19:25:23.072Z,2.50
2023-03-04T19:27:52.053Z,2.40
2023-03-04T19:30:19.416Z,3.95
2023-03-04T19:32:47.589Z,2.13
2023-03-04T19:35:15.247Z,2.13
2023-03-04T19:37:42.546Z,2.13
2023-03-04T19:40:10.692Z,2.67
2023-03-04T19:42:38.070Z,2.67
2023-03-04T19:45:09.569Z,2.55
2023-03-04T19:47:38.486Z,3.80
2023-03-04T19:50:07.626Z,3.97
2023-03-04T19:52:35.651Z,3.30
2023-03-04T19:55:03.851Z,1.98
2023-03-04T19:57:32.479Z,2.20
2023-03-04T19:59:59.885Z,3.40
2023-03-04T20:02:27.344Z,4.22
2023-03-04T20:04:55.644Z,5.65
2023-03-04T20:07:22.909Z,4.80
2023-03-04T20:09:50.171Z,3.53
2023-03-04T20:12:17.428Z,3.60
2023-03-04T20:14:44.815Z,4.10
2023-03-04T20:17:12.208Z,4.25
2023-03-04T20:19:39.614Z,4.10
2023-03-04T20:22:08.176Z,3.08
2023-03-04T20:24:35.566Z,3.70
2023-03-04T20:27:03.587Z,2.70
2023-03-04T20:29:31.048Z,1.90
2023-03-04T20:31:58.627Z,2.72
2023-03-04T20:34:27.157Z,2.70
2023-03-04T20:36:54.480Z,1.75
2023-03-04T20:39:29.150Z,3.63
2023-03-04T20:41:59.624Z,3.13
2023-03-04T20:44:27.964Z,2.38
2023-03-04T20:46:55.628Z,2.20
2023-03-04T20:49:25.934Z,1.80
2023-03-04T20:51:56.233Z,1.65
2023-03-04T20:54:23.743Z,1.55
2023-03-04T20:56:51.928Z,1.52
2023-03-04T20:59:19.688Z,2.10
2023-03-04T21:01:50.548Z,1.83
2023-03-04T21:04:20.778Z,2.63
2023-03-04T21:06:48.476Z,2.35
2023-03-04T21:09:18.276Z,2.20
2023-03-04T21:11:45.942Z,1.70
2023-03-04T21:14:16.308Z,2.20
2023-03-04T21:16:43.940Z,2.13
2023-03-04T21:19:16.953Z,2.97
2023-03-04T21:21:45.285Z,3.33
2023-03-04T21:24:18.240Z,3.28
2023-03-04T21:26:47.765Z,2.15
2023-03-04T21:29:16.703Z,2.75
2023-03-04T21:31:50.327Z,2.47
2023-03-04T21:34:19.227Z,1.93
2023-03-04T21:36:46.600Z,2.90
2023-03-04T21:39:20.688Z,2.15
2023-03-04T21:41:48.638Z,3.15
2023-03-04T21:44:27.632Z,3.17
2023-03-04T21:47:00.771Z,2.75
2023-03-04T21:49:28.634Z,2.70
2023-03-04T21:51:56.251Z,3.15
2023-03-04T21:54:23.596Z,2.42
2023-03-04T21:56:51.012Z,2.05
2023-03-04T21:59:18.626Z,2.80
2023-03-04T22:01:46.543Z,2.67
2023-03-04T22:04:14.020Z,3.10
2023-03-04T22:06:41.575Z,4.35
2023-03-04T22:09:09.677Z,2.55
2023-03-04T22:11:37.031Z,3.97
2023-03-04T22:14:04.334Z,3.40
2023-03-04T22:16:35.403Z,3.90
2023-03-04T22:19:05.000Z,4.05
2023-03-04T22:21:32.243Z,3.80
2023-03-04T22:23:59.695Z,3.22
2023-03-04T22:26:32.589Z,3.60
2023-03-04T22:29:02.509Z,4.20
2023-03-04T22:31:33.073Z,4.05
2023-03-04T22:34:03.945Z,2.75
2023-03-04T22:36:34.167Z,4.13
2023-03-04T22:39:02.536Z,3.30
2023-03-04T22:41:29.810Z,3.55
2023-03-04T22:43:57.591Z,3.40
2023-03-04T22:46:27.437Z,2.60
2023-03-04T22:48:57.735Z,3.05
2023-03-04T22:51:25.483Z,2.13
2023-03-04T22:53:53.302Z,3.08
2023-03-04T22:56:21.359Z,2.85
2023-03-04T22:58:49.170Z,3.35
2023-03-04T23:01:17.943Z,3.65
2023-03-04T23:03:47.060Z,2.75
2023-03-04T23:06:25.246Z,3.65
2023-03-04T23:08:53.459Z,4.28
2023-03-04T23:11:26.631Z,3.58
2023-03-04T23:13:54.968Z,3.35
2023-03-04T23:16:23.140Z,3.45
2023-03-04T23:18:50.934Z,3.08
2023-03-04T23:21:24.606Z,3.92
2023-03-04T23:23:52.720Z,3.58
2023-03-04T23:26:26.941Z,3.28
2023-03-04T23:29:00.378Z,3.30
2023-03-04T23:31:32.432Z,3.53
2023-03-04T23:34:01.021Z,3.40
2023-03-04T23:36:34.745Z,2.85
2023-03-04T23:39:02.890Z,3.67
2023-03-04T23:41:31.779Z,3.75
2023-03-04T23:44:00.611Z,3.53
2023-03-04T23:46:28.814Z,2.85
2023-03-04T23:48:56.600Z,3.28
2023-03-04T23:51:29.264Z,4.68
2023-03-04T23:53:57.191Z,4.13
2023-03-04T23:56:27.700Z,5.70
2023-03-04T23:58:56.328Z,4.85
